createdAt,value
2019-04-03T04:00:59.778Z,0.00
2019-04-03T04:01:57.921Z,0.00
2019-04-03T04:02:58.096Z,0.00
2019-04-03T04:03:58.320Z,0.00
2019-04-03T04:04:58.441Z,0.00
2019-04-03T04:05:58.996Z,0.00
2019-04-03T04:07:02.225Z,0.00
2019-04-03T04:07:58.981Z,0.00
2019-04-03T04:08:59.126Z,0.00
2019-04-03T04:09:59.299Z,0.00
2019-04-03T04:10:59.982Z,0.00
2019-04-03T04:11:59.922Z,0.00
2019-04-03T04:13:00.006Z,0.00
2019-04-03T04:13:59.985Z,0.00
2019-04-03T04:15:00.161Z,0.00
2019-04-03T04:16:03.918Z,0.00
2019-04-03T04:17:00.503Z,0.00
2019-04-03T04:18:00.672Z,0.00
2019-04-03T04:19:01.012Z,0.00
2019-04-03T04:20:05.225Z,0.00
2019-04-03T04:21:01.639Z,0.00
2019-04-03T04:22:01.362Z,0.00
2019-04-03T04:23:01.826Z,0.00
2019-04-03T04:24:01.935Z,0.00
2019-04-03T04:25:01.970Z,0.00
2019-04-03T04:26:02.521Z,0.00
2019-04-03T04:27:03.202Z,0.00
2019-04-03T04:28:02.417Z,0.00
2019-04-03T04:29:02.583Z,4.00
2019-04-03T04:30:02.871Z,4.00
2019-04-03T04:31:02.925Z,4.00
2019-04-03T04:32:03.101Z,4.00
2019-04-03T04:33:03.271Z,4.00
2019-04-03T04:34:03.445Z,4.00
2019-04-03T04:35:03.649Z,8.00
2019-04-03T04:36:03.787Z,8.00
2019-04-03T04:37:04.030Z,12.00
2019-04-03T04:38:04.140Z,8.00
2019-04-03T04:39:04.326Z,8.00
2019-04-03T04:40:04.469Z,12.00
2019-04-03T04:41:04.818Z,12.00
2019-04-03T04:42:04.815Z,12.00
2019-04-03T04:43:07.458Z,20.00
2019-04-03T04:44:05.157Z,20.00
2019-04-03T04:45:05.332Z,24.00
2019-04-03T04:46:05.502Z,24.00
2019-04-03T04:47:05.674Z,28.00
2019-04-03T04:48:05.844Z,32.00
2019-04-03T04:49:06.027Z,32.00
2019-04-03T04:50:06.411Z,36.00
2019-04-03T04:51:06.373Z,40.00
2019-04-03T04:52:06.693Z,44.00
2019-04-03T04:53:06.716Z,52.00
2019-04-03T04:54:06.890Z,52.00
2019-04-03T04:55:07.061Z,60.00
2019-04-03T04:56:07.428Z,68.00
2019-04-03T04:57:08.888Z,76.00
2019-04-03T04:58:07.584Z,80.00
2019-04-03T04:59:07.918Z,84.00
2019-04-03T05:00:07.927Z,96.00
2019-04-03T05:01:08.102Z,104.00
2019-04-03T05:02:08.273Z,116.00
2019-04-03T05:03:08.738Z,128.00
2019-04-03T05:04:08.615Z,136.00
2019-04-03T05:05:09.215Z,152.00
2019-04-03T05:06:09.010Z,160.00
2019-04-03T05:07:09.337Z,172.00
2019-04-03T05:08:09.305Z,180.00
2019-04-03T05:09:09.476Z,188.00
2019-04-03T05:10:09.647Z,200.00
2019-04-03T05:11:09.819Z,204.00
2019-04-03T05:12:10.355Z,216.00
2019-04-03T05:13:10.161Z,232.00
2019-04-03T05:14:10.334Z,248.00
2019-04-03T05:15:10.506Z,268.00
2019-04-03T05:16:10.677Z,284.00
2019-04-03T05:17:10.980Z,296.00
2019-04-03T05:18:11.079Z,312.00
2019-04-03T05:19:17.895Z,328.00
2019-04-03T05:20:11.366Z,340.00
2019-04-03T05:21:11.536Z,344.00
2019-04-03T05:22:11.708Z,348.00
2019-04-03T05:23:11.879Z,352.00
2019-04-03T05:24:13.711Z,364.00
2019-04-03T05:25:12.227Z,368.00
2019-04-03T05:26:12.398Z,376.00
2019-04-03T05:27:12.571Z,388.00
2019-04-03T05:28:12.743Z,400.00
2019-04-03T05:29:12.914Z,416.00
2019-04-03T05:30:13.106Z,432.00
2019-04-03T05:31:13.279Z,452.00
2019-04-03T05:32:13.451Z,464.00
2019-04-03T05:33:13.679Z,472.00
2019-04-03T05:34:14.085Z,484.00
2019-04-03T05:35:14.942Z,488.00
2019-04-03T05:36:17.075Z,496.00
2019-04-03T05:37:14.315Z,504.00
2019-04-03T05:38:14.577Z,508.00
2019-04-03T05:39:14.743Z,516.00
2019-04-03T05:40:14.834Z,524.00
2019-04-03T05:41:15.039Z,532.00
2019-04-03T05:42:15.178Z,548.00
2019-04-03T05:43:15.352Z,568.00
2019-04-03T05:44:15.521Z,596.00
2019-04-03T05:45:15.790Z,624.00
2019-04-03T05:46:16.766Z,644.00
2019-04-03T05:47:16.052Z,660.00
2019-04-03T05:48:17.658Z,668.00
2019-04-03T05:49:18.611Z,672.00
2019-04-03T05:50:16.612Z,672.00
2019-04-03T05:51:16.923Z,676.00
2019-04-03T05:52:17.101Z,680.00
2019-04-03T05:53:17.080Z,680.00
2019-04-03T05:54:17.252Z,676.00
2019-04-03T05:55:17.434Z,672.00
2019-04-03T05:56:17.599Z,680.00
2019-04-03T05:57:17.770Z,700.00
2019-04-03T05:58:17.952Z,740.00
2019-04-03T05:59:18.125Z,808.00
2019-04-03T06:00:18.402Z,868.00
2019-04-03T06:01:18.474Z,912.00
2019-04-03T06:02:21.377Z,912.00
2019-04-03T06:03:18.983Z,880.00
2019-04-03T06:04:18.985Z,836.00
2019-04-03T06:05:19.601Z,800.00
2019-04-03T06:06:19.329Z,780.00
2019-04-03T06:07:19.501Z,756.00
2019-04-03T06:08:20.031Z,740.00
2019-04-03T06:09:20.086Z,744.00
2019-04-03T06:10:20.025Z,780.00
2019-04-03T06:11:20.841Z,856.00
2019-04-03T06:12:20.367Z,952.00
2019-04-03T06:13:20.550Z,1080.00
2019-04-03T06:14:23.090Z,1220.00
2019-04-03T06:15:22.055Z,1372.00
2019-04-03T06:16:23.419Z,1524.00
2019-04-03T06:17:21.228Z,1664.00
2019-04-03T06:18:21.397Z,1764.00
2019-04-03T06:19:21.571Z,1832.00
2019-04-03T06:20:21.751Z,1896.00
2019-04-03T06:21:21.923Z,1960.00
2019-04-03T06:22:22.195Z,2036.00
2019-04-03T06:23:22.242Z,2112.00
2019-04-03T06:24:24.406Z,2160.00
2019-04-03T06:25:22.990Z,2168.00
2019-04-03T06:26:22.782Z,2156.00
2019-04-03T06:27:22.942Z,2140.00
2019-04-03T06:28:23.107Z,2132.00
2019-04-03T06:29:23.487Z,2120.00
2019-04-03T06:30:25.030Z,2100.00
2019-04-03T06:31:24.347Z,2088.00
2019-04-03T06:32:24.928Z,2068.00
2019-04-03T06:33:23.977Z,2040.00
2019-04-03T06:34:24.152Z,2000.00
2019-04-03T06:35:24.321Z,1956.00
2019-04-03T06:36:24.506Z,1892.00
2019-04-03T06:37:24.669Z,1816.00
2019-04-03T06:38:25.215Z,1744.00
2019-04-03T06:39:30.461Z,1688.00
2019-04-03T06:40:25.346Z,1640.00
2019-04-03T06:41:25.353Z,1608.00
2019-04-03T06:42:25.525Z,1608.00
2019-04-03T06:43:25.700Z,1608.00
2019-04-03T06:44:26.120Z,1580.00
2019-04-03T06:45:27.021Z,1520.00
2019-04-03T06:46:28.454Z,1448.00
2019-04-03T06:47:26.402Z,1368.00
2019-04-03T06:48:26.574Z,1292.00
2019-04-03T06:49:26.755Z,1240.00
2019-04-03T06:50:26.922Z,1216.00
2019-04-03T06:51:27.093Z,1220.00
2019-04-03T06:52:27.509Z,1244.00
2019-04-03T06:53:28.680Z,1292.00
2019-04-03T06:54:27.819Z,1340.00
2019-04-03T06:55:27.954Z,1392.00
2019-04-03T06:56:28.039Z,1460.00
2019-04-03T06:57:28.142Z,1532.00
2019-04-03T06:58:37.361Z,1616.00
2019-04-03T06:59:28.483Z,1696.00
2019-04-03T07:00:28.871Z,1756.00
2019-04-03T07:01:28.827Z,1848.00
2019-04-03T07:02:31.420Z,2008.00
2019-04-03T07:03:29.173Z,2276.00
2019-04-03T07:04:29.348Z,2600.00
2019-04-03T07:05:29.519Z,2852.00
2019-04-03T07:06:29.690Z,3020.00
2019-04-03T07:07:34.136Z,3136.00
2019-04-03T07:08:34.850Z,3208.00
2019-04-03T07:09:35.602Z,3268.00
2019-04-03T07:10:30.388Z,3300.00
2019-04-03T07:11:30.561Z,3272.00
2019-04-03T07:12:30.778Z,3216.00
2019-04-03T07:13:30.905Z,3120.00
2019-04-03T07:14:31.133Z,2996.00
2019-04-03T07:15:31.248Z,2852.00
2019-04-03T07:16:31.434Z,2712.00
2019-04-03T07:17:32.839Z,2644.00
2019-04-03T07:18:31.762Z,2664.00
2019-04-03T07:19:32.180Z,2712.00
2019-04-03T07:20:32.107Z,2772.00
2019-04-03T07:21:32.467Z,2844.00
2019-04-03T07:22:32.454Z,2924.00
2019-04-03T07:23:32.678Z,2972.00
2019-04-03T07:24:32.897Z,3012.00
2019-04-03T07:25:33.930Z,3064.00
2019-04-03T07:26:35.131Z,3180.00
2019-04-03T07:27:34.895Z,3364.00
2019-04-03T07:28:33.490Z,3608.00
2019-04-03T07:29:33.974Z,3872.00
2019-04-03T07:30:33.845Z,4108.00
2019-04-03T07:31:34.016Z,4312.00
2019-04-03T07:32:34.188Z,4472.00
2019-04-03T07:33:34.360Z,4596.00
2019-04-03T07:34:34.674Z,4704.00
2019-04-03T07:35:34.950Z,4768.00
2019-04-03T07:36:34.877Z,4728.00
2019-04-03T07:37:35.090Z,4588.00
2019-04-03T07:38:35.455Z,4456.00
2019-04-03T07:39:35.397Z,4372.00
2019-04-03T07:40:35.568Z,4344.00
2019-04-03T07:41:35.739Z,4384.00
2019-04-03T07:42:35.914Z,4532.00
2019-04-03T07:43:36.094Z,4776.00
2019-04-03T07:44:36.261Z,5004.00
2019-04-03T07:45:36.430Z,5148.00
2019-04-03T07:46:36.605Z,5236.00
2019-04-03T07:47:36.782Z,5300.00
2019-04-03T07:48:37.954Z,5288.00
2019-04-03T07:49:37.689Z,5256.00
2019-04-03T07:50:37.292Z,5272.00
2019-04-03T07:51:37.470Z,5348.00
2019-04-03T07:52:37.640Z,5476.00
2019-04-03T07:53:37.809Z,5604.00
2019-04-03T07:54:38.130Z,5708.00
2019-04-03T07:55:38.158Z,5824.00
2019-04-03T07:56:38.343Z,5920.00
2019-04-03T07:57:40.929Z,5968.00
2019-04-03T07:58:38.678Z,6004.00
2019-04-03T07:59:38.848Z,6048.00
2019-04-03T08:00:39.269Z,6064.00
2019-04-03T08:01:41.306Z,6052.00
2019-04-03T08:02:39.364Z,6016.00
2019-04-03T08:03:39.539Z,6000.00
2019-04-03T08:04:39.972Z,6032.00
2019-04-03T08:05:39.888Z,6156.00
2019-04-03T08:06:40.211Z,6340.00
2019-04-03T08:07:40.440Z,6492.00
2019-04-03T08:08:40.399Z,6604.00
2019-04-03T08:09:40.570Z,6780.00
2019-04-03T08:10:40.744Z,7012.00
2019-04-03T08:11:41.038Z,7260.00
2019-04-03T08:12:41.088Z,7492.00
2019-04-03T08:13:41.319Z,7728.00
2019-04-03T08:14:42.002Z,7904.00
2019-04-03T08:15:43.889Z,7956.00
2019-04-03T08:16:43.196Z,7992.00
2019-04-03T08:17:41.984Z,7944.00
2019-04-03T08:18:42.125Z,7756.00
2019-04-03T08:19:44.933Z,7516.00
2019-04-03T08:20:42.472Z,7244.00
2019-04-03T08:21:42.645Z,7132.00
2019-04-03T08:22:42.819Z,7268.00
2019-04-03T08:23:42.992Z,7532.00
2019-04-03T08:24:43.165Z,7620.00
2019-04-03T08:25:47.142Z,7604.00
2019-04-03T08:26:43.512Z,7572.00
2019-04-03T08:27:43.837Z,7560.00
2019-04-03T08:28:43.861Z,7628.00
2019-04-03T08:29:44.032Z,7796.00
2019-04-03T08:30:44.248Z,7896.00
2019-04-03T08:31:48.264Z,7896.00
2019-04-03T08:32:47.370Z,7820.00
2019-04-03T08:33:44.726Z,7472.00
2019-04-03T08:34:44.903Z,7140.00
2019-04-03T08:35:45.320Z,7080.00
2019-04-03T08:36:45.244Z,7292.00
2019-04-03T08:37:45.644Z,7364.00
2019-04-03T08:38:45.772Z,7396.00
2019-04-03T08:39:48.436Z,7404.00
2019-04-03T08:40:45.943Z,7396.00
2019-04-03T08:41:46.396Z,7408.00
2019-04-03T08:42:46.321Z,7292.00
2019-04-03T08:43:46.440Z,7120.00
2019-04-03T08:44:46.615Z,6944.00
2019-04-03T08:45:46.790Z,6792.00
2019-04-03T08:46:46.965Z,6708.00
2019-04-03T08:47:47.139Z,6680.00
2019-04-03T08:48:47.431Z,6724.00
2019-04-03T08:49:47.660Z,6828.00
2019-04-03T08:50:47.654Z,7000.00
2019-04-03T08:51:47.830Z,7204.00
2019-04-03T08:52:48.004Z,7380.00
2019-04-03T08:53:48.198Z,7484.00
2019-04-03T08:54:48.349Z,7412.00
2019-04-03T08:55:48.611Z,7192.00
2019-04-03T08:56:49.429Z,6916.00
2019-04-03T08:57:51.891Z,6600.00
2019-04-03T08:58:49.265Z,6304.00
2019-04-03T08:59:49.550Z,6072.00
2019-04-03T09:00:49.389Z,5904.00
2019-04-03T09:01:49.559Z,5780.00
2019-04-03T09:02:49.734Z,5648.00
2019-04-03T09:03:49.910Z,5556.00
2019-04-03T09:04:50.084Z,5540.00
2019-04-03T09:05:51.050Z,5608.00
2019-04-03T09:06:53.107Z,5728.00
2019-04-03T09:07:50.801Z,5888.00
2019-04-03T09:08:50.780Z,6056.00
2019-04-03T09:09:51.029Z,6212.00
2019-04-03T09:10:51.397Z,6332.00
2019-04-03T09:11:51.296Z,6408.00
2019-04-03T09:12:51.469Z,6476.00
2019-04-03T09:13:54.373Z,6568.00
2019-04-03T09:14:51.818Z,6680.00
2019-04-03T09:15:52.191Z,6792.00
2019-04-03T09:16:52.174Z,6872.00
2019-04-03T09:17:52.341Z,6908.00
2019-04-03T09:18:52.518Z,6908.00
2019-04-03T09:19:52.965Z,6956.00
2019-04-03T09:20:52.867Z,7016.00
2019-04-03T09:21:53.086Z,7008.00
2019-04-03T09:22:54.391Z,6916.00
2019-04-03T09:23:55.183Z,6732.00
2019-04-03T09:24:53.560Z,6516.00
2019-04-03T09:25:54.004Z,6336.00
2019-04-03T09:26:54.231Z,6304.00
2019-04-03T09:27:54.082Z,6484.00
2019-04-03T09:28:54.254Z,6592.00
2019-04-03T09:29:54.428Z,6644.00
2019-04-03T09:30:54.600Z,6768.00
2019-04-03T09:31:56.233Z,7028.00
2019-04-03T09:32:55.223Z,7312.00
2019-04-03T09:33:56.984Z,7584.00
2019-04-03T09:34:55.295Z,7924.00
2019-04-03T09:35:58.498Z,8232.00
2019-04-03T09:36:55.646Z,8476.00
2019-04-03T09:37:55.896Z,8692.00
2019-04-03T09:38:55.990Z,8912.00
2019-04-03T09:39:56.165Z,9336.00
2019-04-03T09:40:56.339Z,10048.00
2019-04-03T09:41:56.516Z,10904.00
2019-04-03T09:42:56.688Z,11648.00
2019-04-03T09:43:56.862Z,12456.00
2019-04-03T09:44:57.393Z,13440.00
2019-04-03T09:45:59.397Z,14544.00
2019-04-03T09:46:57.444Z,15308.00
2019-04-03T09:47:57.572Z,16192.00
2019-04-03T09:48:57.997Z,15832.00
2019-04-03T09:49:57.956Z,16128.00
2019-04-03T09:50:58.096Z,15856.00
2019-04-03T09:51:58.267Z,15496.00
2019-04-03T09:52:58.443Z,15528.00
2019-04-03T09:53:58.617Z,15760.00
2019-04-03T09:55:00.292Z,16608.00
2019-04-03T09:55:59.085Z,18080.00
2019-04-03T09:57:04.474Z,17536.00
2019-04-03T09:57:59.313Z,17888.00
2019-04-03T09:58:59.485Z,17536.00
2019-04-03T09:59:59.662Z,19296.00
2019-04-03T10:00:59.837Z,16448.00
2019-04-03T10:02:00.174Z,15468.00
2019-04-03T10:03:00.187Z,15856.00
2019-04-03T10:04:00.363Z,17184.00
2019-04-03T10:05:00.536Z,17632.00
2019-04-03T10:06:00.853Z,17376.00
2019-04-03T10:07:02.028Z,13828.00
2019-04-03T10:08:01.059Z,10972.00
2019-04-03T10:09:01.231Z,8464.00
2019-04-03T10:10:01.832Z,6888.00
2019-04-03T10:11:01.583Z,6536.00
2019-04-03T10:12:02.044Z,6684.00
2019-04-03T10:13:02.080Z,6776.00
2019-04-03T10:14:02.109Z,7612.00
2019-04-03T10:15:02.281Z,9396.00
2019-04-03T10:16:03.957Z,11540.00
2019-04-03T10:17:03.900Z,13592.00
2019-04-03T10:18:03.054Z,15348.00
2019-04-03T10:19:02.979Z,16360.00
2019-04-03T10:20:03.155Z,18176.00
2019-04-03T10:21:03.349Z,19168.00
2019-04-03T10:22:03.511Z,20064.00
2019-04-03T10:23:03.676Z,24992.00
2019-04-03T10:24:03.849Z,20608.00
2019-04-03T10:25:05.499Z,26976.00
2019-04-03T10:26:05.921Z,24864.00
2019-04-03T10:27:04.373Z,22112.00
2019-04-03T10:28:04.547Z,16288.00
2019-04-03T10:29:04.854Z,11296.00
2019-04-03T10:30:05.225Z,7924.00
2019-04-03T10:31:05.070Z,6212.00
2019-04-03T10:32:05.248Z,5776.00
2019-04-03T10:33:05.636Z,5320.00
2019-04-03T10:34:05.596Z,4732.00
2019-04-03T10:35:07.290Z,4256.00
2019-04-03T10:36:05.945Z,3948.00
2019-04-03T10:37:06.127Z,3908.00
2019-04-03T10:38:06.340Z,4200.00
2019-04-03T10:39:06.472Z,4828.00
2019-04-03T10:40:06.904Z,5716.00
2019-04-03T10:41:06.818Z,6592.00
2019-04-03T10:42:06.996Z,7176.00
2019-04-03T10:43:07.163Z,7200.00
2019-04-03T10:44:09.292Z,7256.00
2019-04-03T10:45:07.512Z,7416.00
2019-04-03T10:46:07.690Z,7728.00
2019-04-03T10:47:07.952Z,8428.00
2019-04-03T10:48:08.038Z,8828.00
2019-04-03T10:49:08.503Z,8680.00
2019-04-03T10:50:08.388Z,8044.00
2019-04-03T10:51:09.301Z,7668.00
2019-04-03T10:52:08.733Z,7464.00
2019-04-03T10:53:08.908Z,7520.00
2019-04-03T10:54:09.083Z,6876.00
2019-04-03T10:55:09.261Z,6712.00
2019-04-03T10:56:09.429Z,6860.00
2019-04-03T10:57:09.711Z,6872.00
2019-04-03T10:58:09.914Z,6612.00
2019-04-03T10:59:12.993Z,6456.00
2019-04-03T11:00:10.216Z,6172.00
2019-04-03T11:01:10.298Z,6032.00
2019-04-03T11:02:10.469Z,6396.00
2019-04-03T11:03:10.889Z,7224.00
2019-04-03T11:04:11.079Z,7808.00
2019-04-03T11:05:10.996Z,8288.00
2019-04-03T11:06:11.308Z,8588.00
2019-04-03T11:07:11.341Z,8008.00
2019-04-03T11:08:11.540Z,7464.00
2019-04-03T11:09:11.689Z,8000.00
2019-04-03T11:10:11.960Z,8760.00
2019-04-03T11:11:12.033Z,9524.00
2019-04-03T11:12:12.582Z,10188.00
2019-04-03T11:13:12.380Z,10216.00
2019-04-03T11:14:12.553Z,9380.00
2019-04-03T11:15:12.820Z,7980.00
2019-04-03T11:16:13.181Z,6820.00
2019-04-03T11:17:13.348Z,6944.00
2019-04-03T11:18:13.248Z,8360.00
2019-04-03T11:19:13.420Z,8660.00
2019-04-03T11:20:14.061Z,8412.00
2019-04-03T11:21:13.766Z,8280.00
2019-04-03T11:22:16.267Z,7560.00
2019-04-03T11:23:14.202Z,7592.00
2019-04-03T11:24:14.675Z,8420.00
2019-04-03T11:25:15.937Z,9252.00
2019-04-03T11:26:17.644Z,10248.00
2019-04-03T11:27:15.298Z,10620.00
2019-04-03T11:28:14.993Z,9912.00
2019-04-03T11:29:15.192Z,10476.00
2019-04-03T11:30:19.032Z,12788.00
2019-04-03T11:31:25.940Z,9964.00
2019-04-03T11:32:15.678Z,7056.00
2019-04-03T11:33:15.936Z,5868.00
2019-04-03T11:34:18.028Z,5760.00
2019-04-03T11:35:16.407Z,6400.00
2019-04-03T11:36:16.543Z,7108.00
2019-04-03T11:37:16.552Z,7432.00
2019-04-03T11:38:26.286Z,7616.00
2019-04-03T11:39:16.922Z,7500.00
2019-04-03T11:40:18.150Z,7132.00
2019-04-03T11:41:19.596Z,6696.00
2019-04-03T11:42:24.040Z,6420.00
2019-04-03T11:43:17.595Z,6196.00
2019-04-03T11:44:17.856Z,5952.00
2019-04-03T11:45:18.167Z,5768.00
2019-04-03T11:46:18.114Z,5552.00
2019-04-03T11:47:18.289Z,5240.00
2019-04-03T11:48:18.467Z,4836.00
2019-04-03T11:49:20.038Z,4532.00
2019-04-03T11:50:18.809Z,4420.00
2019-04-03T11:51:18.983Z,4456.00
2019-04-03T11:52:19.158Z,4536.00
2019-04-03T11:53:19.329Z,4492.00
2019-04-03T11:54:19.588Z,4384.00
2019-04-03T11:55:19.889Z,4204.00
2019-04-03T11:56:19.857Z,4000.00
2019-04-03T11:57:20.023Z,4068.00
2019-04-03T11:58:21.314Z,4308.00
2019-04-03T11:59:22.711Z,4564.00
2019-04-03T12:00:20.893Z,4864.00
2019-04-03T12:01:20.786Z,5336.00
2019-04-03T12:02:20.894Z,5996.00
2019-04-03T12:03:21.067Z,6500.00
2019-04-03T12:04:21.284Z,7244.00
2019-04-03T12:05:21.635Z,8628.00
2019-04-03T12:06:21.958Z,10328.00
2019-04-03T12:07:22.873Z,11480.00
2019-04-03T12:08:21.931Z,12344.00
2019-04-03T12:09:22.107Z,14172.00
2019-04-03T12:10:24.899Z,16768.00
2019-04-03T12:11:22.682Z,19136.00
2019-04-03T12:12:22.651Z,21664.00
2019-04-03T12:13:22.870Z,26336.00
2019-04-03T12:14:22.973Z,43776.00
2019-04-03T12:15:23.144Z,43488.00
2019-04-03T12:16:25.222Z,46624.00
2019-04-03T12:17:23.492Z,64352.00
2019-04-03T12:18:24.039Z,55712.00
2019-04-03T12:19:23.926Z,63776.00
2019-04-03T12:20:24.054Z,33984.00
2019-04-03T12:21:24.506Z,37088.00
2019-04-03T12:22:24.360Z,74400.00
2019-04-03T12:23:26.913Z,69216.00
2019-04-03T12:24:25.109Z,65600.00
2019-04-03T12:25:25.237Z,66560.00
2019-04-03T12:26:25.365Z,54560.00
2019-04-03T12:27:25.246Z,37472.00
2019-04-03T12:28:25.414Z,32640.00
2019-04-03T12:29:25.591Z,42048.00
2019-04-03T12:30:26.857Z,56800.00
2019-04-03T12:31:25.944Z,92704.00
2019-04-03T12:32:36.641Z,47456.00
2019-04-03T12:33:26.568Z,83136.00
2019-04-03T12:34:26.461Z,84064.00
2019-04-03T12:35:26.639Z,27680.00
2019-04-03T12:36:27.810Z,39648.00
2019-04-03T12:37:26.991Z,34688.00
2019-04-03T12:38:27.173Z,94144.00
2019-04-03T12:39:28.095Z,32352.00
2019-04-03T12:40:27.524Z,33376.00
2019-04-03T12:41:28.011Z,75904.00
2019-04-03T12:42:27.901Z,47328.00
2019-04-03T12:43:28.050Z,78784.00
2019-04-03T12:44:28.226Z,98912.00
2019-04-03T12:45:28.405Z,37888.00
2019-04-03T12:46:28.580Z,54336.00
2019-04-03T12:47:28.755Z,80448.00
2019-04-03T12:48:29.244Z,38560.00
2019-04-03T12:49:29.108Z,37824.00
2019-04-03T12:50:29.286Z,47744.00
2019-04-03T12:51:31.570Z,24512.00
2019-04-03T12:52:29.763Z,22496.00
2019-04-03T12:53:30.242Z,22304.00
2019-04-03T12:54:30.214Z,16960.00
2019-04-03T12:55:30.296Z,18272.00
2019-04-03T12:56:30.953Z,21760.00
2019-04-03T12:57:32.390Z,20480.00
2019-04-03T12:58:31.084Z,19744.00
2019-04-03T12:59:30.882Z,21632.00
2019-04-03T13:00:31.057Z,21216.00
2019-04-03T13:01:31.233Z,21280.00
2019-04-03T13:02:31.519Z,21408.00
2019-04-03T13:03:31.965Z,22464.00
2019-04-03T13:04:32.807Z,20832.00
2019-04-03T13:05:32.278Z,19488.00
2019-04-03T13:06:32.522Z,20288.00
2019-04-03T13:07:32.853Z,23552.00
2019-04-03T13:08:32.863Z,49440.00
2019-04-03T13:09:33.025Z,62912.00
2019-04-03T13:10:40.974Z,30560.00
2019-04-03T13:11:33.970Z,24896.00
2019-04-03T13:12:33.769Z,25536.00
2019-04-03T13:13:33.732Z,19008.00
2019-04-03T13:14:33.579Z,14900.00
2019-04-03T13:15:36.240Z,15024.00
2019-04-03T13:16:33.877Z,14488.00
2019-04-03T13:17:34.050Z,13896.00
2019-04-03T13:18:34.225Z,13552.00
2019-04-03T13:19:34.399Z,13904.00
2019-04-03T13:20:36.673Z,13648.00
2019-04-03T13:21:34.975Z,13504.00
2019-04-03T13:22:34.926Z,13072.00
2019-04-03T13:23:35.570Z,17536.00
2019-04-03T13:24:35.275Z,14960.00
2019-04-03T13:25:35.450Z,13108.00
2019-04-03T13:26:35.928Z,12608.00
2019-04-03T13:27:36.125Z,14196.00
2019-04-03T13:28:39.488Z,14512.00
2019-04-03T13:29:38.313Z,14288.00
2019-04-03T13:30:36.324Z,11964.00
2019-04-03T13:31:36.494Z,10624.00
2019-04-03T13:32:37.057Z,10968.00
2019-04-03T13:33:38.724Z,11156.00
2019-04-03T13:34:37.203Z,11920.00
2019-04-03T13:35:37.193Z,13192.00
2019-04-03T13:36:37.735Z,16012.00
2019-04-03T13:37:37.717Z,18656.00
2019-04-03T13:38:38.138Z,17792.00
2019-04-03T13:39:38.305Z,18176.00
2019-04-03T13:40:39.038Z,22144.00
2019-04-03T13:41:39.968Z,25888.00
2019-04-03T13:42:38.681Z,23392.00
2019-04-03T13:43:38.992Z,23712.00
2019-04-03T13:44:38.768Z,18656.00
2019-04-03T13:45:39.039Z,15788.00
2019-04-03T13:46:39.116Z,15628.00
2019-04-03T13:47:41.500Z,14352.00
2019-04-03T13:48:39.693Z,13928.00
2019-04-03T13:49:39.920Z,14128.00
2019-04-03T13:50:40.152Z,13896.00
2019-04-03T13:51:39.988Z,12764.00
2019-04-03T13:52:43.605Z,12092.00
2019-04-03T13:53:40.336Z,13380.00
2019-04-03T13:54:40.511Z,15832.00
2019-04-03T13:55:40.846Z,20992.00
2019-04-03T13:56:43.104Z,25280.00
2019-04-03T13:57:41.033Z,27232.00
2019-04-03T13:58:41.645Z,29856.00
2019-04-03T13:59:41.527Z,24352.00
2019-04-03T14:00:41.560Z,37504.00
2019-04-03T14:01:41.817Z,53280.00
2019-04-03T14:02:45.009Z,60608.00
2019-04-03T14:03:42.124Z,68416.00
2019-04-03T14:04:42.348Z,29344.00
2019-04-03T14:05:43.453Z,60320.00
2019-04-03T14:06:42.975Z,62752.00
2019-04-03T14:07:42.794Z,68896.00
2019-04-03T14:08:45.088Z,71072.00
2019-04-03T14:09:43.143Z,70656.00
2019-04-03T14:10:43.319Z,65568.00
2019-04-03T14:11:43.499Z,62528.00
2019-04-03T14:12:45.182Z,37056.00
2019-04-03T14:13:44.428Z,61824.00
2019-04-03T14:14:45.243Z,64608.00
2019-04-03T14:15:44.199Z,56640.00
2019-04-03T14:16:44.403Z,38688.00
2019-04-03T14:17:55.317Z,29600.00
2019-04-03T14:18:44.731Z,27424.00
2019-04-03T14:19:48.429Z,30016.00
2019-04-03T14:20:45.089Z,28480.00
2019-04-03T14:21:45.264Z,30720.00
2019-04-03T14:22:45.447Z,42144.00
2019-04-03T14:23:45.624Z,33824.00
2019-04-03T14:24:50.990Z,39840.00
2019-04-03T14:25:45.976Z,68384.00
2019-04-03T14:26:46.551Z,58176.00
2019-04-03T14:27:46.497Z,50272.00
2019-04-03T14:28:46.513Z,25440.00
2019-04-03T14:29:46.689Z,16736.00
2019-04-03T14:30:46.961Z,14624.00
2019-04-03T14:31:48.619Z,12992.00
2019-04-03T14:32:47.494Z,12388.00
2019-04-03T14:33:47.765Z,14028.00
2019-04-03T14:34:47.913Z,14412.00
2019-04-03T14:35:52.641Z,14320.00
2019-04-03T14:36:50.127Z,13236.00
2019-04-03T14:37:48.131Z,12400.00
2019-04-03T14:38:48.300Z,11736.00
2019-04-03T14:39:48.722Z,11228.00
2019-04-03T14:40:48.664Z,11440.00
2019-04-03T14:41:48.901Z,13484.00
2019-04-03T14:42:49.045Z,15104.00
2019-04-03T14:43:49.231Z,14272.00
2019-04-03T14:44:49.408Z,24544.00
2019-04-03T14:45:49.596Z,14936.00
2019-04-03T14:46:50.646Z,13956.00
2019-04-03T14:47:49.966Z,13040.00
2019-04-03T14:48:50.484Z,13556.00
2019-04-03T14:49:50.321Z,14136.00
2019-04-03T14:50:50.806Z,16288.00
2019-04-03T14:51:50.687Z,14380.00
2019-04-03T14:52:50.853Z,14004.00
2019-04-03T14:53:52.675Z,16224.00
2019-04-03T14:54:51.617Z,22144.00
2019-04-03T14:55:51.380Z,33408.00
2019-04-03T14:56:51.558Z,45120.00
2019-04-03T14:57:53.776Z,41984.00
2019-04-03T14:58:51.905Z,48032.00
2019-04-03T14:59:52.093Z,47296.00
2019-04-03T15:00:52.257Z,19264.00
2019-04-03T15:01:52.822Z,16640.00
2019-04-03T15:02:53.122Z,13004.00
2019-04-03T15:03:52.781Z,13032.00
2019-04-03T15:04:53.291Z,12660.00
2019-04-03T15:05:53.463Z,9620.00
2019-04-03T15:07:02.046Z,9128.00
2019-04-03T15:07:53.909Z,9928.00
2019-04-03T15:08:54.722Z,9160.00
2019-04-03T15:09:53.833Z,8756.00
2019-04-03T15:10:54.008Z,8464.00
2019-04-03T15:11:54.604Z,8484.00
2019-04-03T15:12:54.705Z,9180.00
2019-04-03T15:13:54.534Z,20512.00
2019-04-03T15:14:55.600Z,10468.00
2019-04-03T15:15:54.883Z,10336.00
2019-04-03T15:16:55.206Z,11428.00
2019-04-03T15:17:55.230Z,14572.00
2019-04-03T15:18:55.766Z,38240.00
2019-04-03T15:19:56.700Z,34400.00
2019-04-03T15:20:55.759Z,30176.00
2019-04-03T15:21:57.956Z,32032.00
2019-04-03T15:22:56.461Z,24448.00
2019-04-03T15:23:56.584Z,34656.00
2019-04-03T15:24:56.458Z,35648.00
2019-04-03T15:25:56.757Z,29056.00
2019-04-03T15:26:56.821Z,32256.00
2019-04-03T15:27:58.695Z,12104.00
2019-04-03T15:28:57.172Z,8608.00
2019-04-03T15:29:57.729Z,5660.00
2019-04-03T15:30:57.521Z,4340.00
2019-04-03T15:31:58.057Z,3672.00
2019-04-03T15:32:57.983Z,3596.00
2019-04-03T15:33:58.253Z,3700.00
2019-04-03T15:34:59.757Z,4024.00
2019-04-03T15:35:58.695Z,4268.00
2019-04-03T15:36:58.728Z,4528.00
2019-04-03T15:37:58.749Z,4752.00
2019-04-03T15:38:59.871Z,4980.00
2019-04-03T15:39:59.284Z,5372.00
2019-04-03T15:40:59.834Z,6048.00
2019-04-03T15:41:59.736Z,6924.00
2019-04-03T15:42:59.619Z,7836.00
2019-04-03T15:43:59.794Z,9392.00
2019-04-03T15:44:59.979Z,11164.00
2019-04-03T15:46:00.156Z,12368.00
2019-04-03T15:47:01.256Z,12852.00
2019-04-03T15:48:00.493Z,12580.00
2019-04-03T15:49:00.948Z,11516.00
2019-04-03T15:50:00.840Z,11188.00
2019-04-03T15:51:01.017Z,11400.00
2019-04-03T15:52:01.557Z,11788.00
2019-04-03T15:53:01.386Z,11600.00
2019-04-03T15:54:01.551Z,10324.00
2019-04-03T15:55:03.731Z,8476.00
2019-04-03T15:56:01.917Z,7484.00
2019-04-03T15:57:02.133Z,6980.00
2019-04-03T15:58:02.722Z,6928.00
2019-04-03T15:59:02.947Z,7312.00
2019-04-03T16:00:03.552Z,7764.00
2019-04-03T16:01:02.843Z,8000.00
2019-04-03T16:02:03.030Z,8176.00
2019-04-03T16:03:03.192Z,8376.00
2019-04-03T16:04:03.429Z,9000.00
2019-04-03T16:05:04.103Z,10120.00
2019-04-03T16:06:04.724Z,13220.00
2019-04-03T16:07:06.753Z,12564.00
2019-04-03T16:08:04.166Z,13480.00